首页
METAR-TAF:

METAR-TAF

机场 :

法兰克福机场

法兰克福, 德国

纬度: 50-03N, 经度: 008-36E, 海拔: 111米

当前天气观测

该预报发布于20分钟前的19:20 UTC
风速8节,风向西转西北,在西北转西北之间变化
温度 13°C
湿度 82%
气压 1015 hPa
能见度10公里或以上
少量云层高于1200英尺
多云层高于1500英尺
多云层高于2800英尺

METAR: EDDF 211920Z 30008KT 270V330 9999 FEW012 BKN015 BKN028 13/10 Q1015 NOSIG

时间: 21:40 (19:40 UTC)

预报

该预报发布于2小时和40分钟前的17:00 UTC
预报有效从21日的 18点(UTC)到 22日的 24点(UTC)
风速10节,风向西
能见度10公里或以上
多云层高于2000英尺
短暂存在
从 21日的 18点(UTC)到 22日的 10点(UTC)
多云层高于1200英尺
成为
从 22日的 18点(UTC)到 22日的 21点(UTC)
风速5节,风向西转西北

TAF: EDDF 211700Z 2118/2224 28010KT 9999 BKN020 TEMPO 2118/2210 BKN012 BECMG 2218/2221 29005KT

超过4000个机场的气象观测和天气预报(METAR&TAF报告)。

可查询的气象台以黄色和红色小点在地图上表示。

将鼠标移到小点上方,可查看气象台名称。

然后点击查看天气观测和预报。

如需切换地图:点击带黑十字的绿色按钮放大地图;点击带横线的绿色按钮缩小地图;或者点击绿色箭头查看邻近地区的地图。


METAR-TAF: